Bom Jesus, Brazil
Current Conditions -  °F | °C
As of 3:00 PM on Thursday 18 Dec 2014 (Local Time) from SBJU Reporting Station
Broken Clouds Broken Clouds  
Wind Chill: 84°   Ceiling: 8000
Heat Index: 91°   Visibility: 6mi
Dew Point: 73°   Wind: 3mph
Humidity: 70%   Direction: 30°NNE
Pressure: 29.94"   Gusts: NA
Location:  6.82°S, 38.66°W
Report Text: SBJU 181800Z 03003KT 9999 SCT020 BKN080 29/23 Q1014
Loading
Personal Weather Stations






























Interactive Weather Map New forecast layout! Learn more

10-Day Weather Forecast

Advertisements
Track Severe Weather on mobile